createdAt,value
2023-04-30T00:00:52.329Z,2.08
2023-04-30T00:02:32.903Z,2.06
2023-04-30T00:04:13.218Z,2.01
2023-04-30T00:05:53.538Z,1.98
2023-04-30T00:07:33.930Z,1.95
2023-04-30T00:09:14.298Z,1.9
2023-04-30T00:10:54.730Z,1.89
2023-04-30T00:12:35.107Z,1.87
2023-04-30T00:14:15.606Z,1.82
2023-04-30T00:15:56.044Z,1.76
2023-04-30T00:17:36.468Z,1.76
2023-04-30T00:19:16.834Z,1.75
2023-04-30T00:20:57.221Z,1.72
2023-04-30T00:22:37.675Z,1.78
2023-04-30T00:24:18.049Z,1.76
2023-04-30T00:25:58.487Z,1.76
2023-04-30T00:27:40.895Z,1.72
2023-04-30T00:29:19.309Z,1.68
2023-04-30T00:30:59.761Z,1.68
2023-04-30T00:32:40.239Z,1.65
2023-04-30T00:34:20.581Z,1.58
2023-04-30T00:36:01.009Z,1.59
2023-04-30T00:37:41.451Z,1.61
2023-04-30T00:39:21.913Z,1.58
2023-04-30T00:41:02.396Z,1.55
2023-04-30T00:42:42.839Z,1.54
2023-04-30T00:44:23.279Z,1.5
2023-04-30T00:46:03.721Z,1.51
2023-04-30T00:47:44.086Z,1.45
2023-04-30T00:49:24.461Z,1.45
2023-04-30T00:51:04.895Z,1.44
2023-04-30T00:52:45.227Z,1.43
2023-04-30T00:54:25.699Z,1.43
2023-04-30T00:56:06.160Z,1.41
2023-04-30T00:57:46.558Z,1.38
2023-04-30T00:59:26.910Z,1.37
2023-04-30T01:01:07.380Z,1.37
2023-04-30T01:02:47.888Z,1.4
2023-04-30T01:04:28.196Z,1.38
2023-04-30T01:06:08.586Z,1.33
2023-04-30T01:07:48.955Z,1.34
2023-04-30T01:09:29.308Z,1.33
2023-04-30T01:11:09.788Z,1.26
2023-04-30T01:12:50.173Z,1.2
2023-04-30T01:14:30.685Z,1.22
2023-04-30T01:16:11.021Z,1.2
2023-04-30T01:17:51.499Z,1.19
2023-04-30T01:19:31.796Z,1.16
2023-04-30T01:21:12.209Z,1.16
2023-04-30T01:22:52.579Z,1.12
2023-04-30T01:24:32.955Z,1.1
2023-04-30T01:26:13.359Z,1.14
2023-04-30T01:27:53.820Z,1.12
2023-04-30T01:29:34.202Z,1.08
2023-04-30T01:31:14.624Z,1
2023-04-30T01:32:55.146Z,1.03
2023-04-30T01:34:35.546Z,1.04
2023-04-30T01:36:15.957Z,1.07
2023-04-30T01:37:56.364Z,1.03
2023-04-30T01:39:36.778Z,0.96
2023-04-30T01:41:17.237Z,0.92
2023-04-30T01:42:57.688Z,0.92
2023-04-30T01:44:38.110Z,0.95
2023-04-30T01:46:18.607Z,0.92
2023-04-30T01:47:59.040Z,0.92
2023-04-30T01:49:39.384Z,0.87
2023-04-30T01:51:19.771Z,0.89
2023-04-30T01:53:00.214Z,0.89
2023-04-30T01:54:40.562Z,0.92
2023-04-30T01:56:20.897Z,0.89
2023-04-30T01:58:01.286Z,0.87
2023-04-30T01:59:41.603Z,0.9
2023-04-30T02:01:22.167Z,0.86
2023-04-30T02:03:02.730Z,0.85
2023-04-30T02:04:42.986Z,0.8
2023-04-30T02:06:38.430Z,0.8
2023-04-30T02:08:03.786Z,0.8
2023-04-30T02:09:44.170Z,0.82
2023-04-30T02:11:24.568Z,0.83
2023-04-30T02:13:05.089Z,0.77
2023-04-30T02:14:45.505Z,0.73
2023-04-30T02:16:25.828Z,0.73
2023-04-30T02:18:06.320Z,0.69
2023-04-30T02:19:46.719Z,0.68
2023-04-30T02:21:27.139Z,0.65
2023-04-30T02:23:07.564Z,0.65
2023-04-30T02:24:47.975Z,0.64
2023-04-30T02:26:28.372Z,0.61
2023-04-30T02:28:08.893Z,0.58
2023-04-30T02:29:49.498Z,0.56
2023-04-30T02:31:29.830Z,0.56
2023-04-30T02:33:10.304Z,0.62
2023-04-30T02:34:50.714Z,0.62
2023-04-30T02:36:31.107Z,0.56
2023-04-30T02:38:11.504Z,0.54
2023-04-30T02:39:52.130Z,0.52
2023-04-30T02:41:32.262Z,0.52
2023-04-30T02:43:12.662Z,0.49
2023-04-30T02:44:53.083Z,0.49
2023-04-30T02:46:33.527Z,0.45
2023-04-30T02:48:13.895Z,0.4
2023-04-30T02:49:54.565Z,0.37
2023-04-30T02:51:34.802Z,0.35
2023-04-30T02:53:15.182Z,0.34
2023-04-30T02:54:55.638Z,0.35
2023-04-30T02:56:36.150Z,0.38
2023-04-30T02:58:16.515Z,0.35
2023-04-30T02:59:57.288Z,0.37
2023-04-30T03:01:37.417Z,0.37
2023-04-30T03:03:17.925Z,0.32
2023-04-30T03:04:58.192Z,0.4
2023-04-30T03:06:38.655Z,0.42
2023-04-30T03:08:19.053Z,0.49
2023-04-30T03:09:59.498Z,0.48
2023-04-30T03:11:40.011Z,0.49
2023-04-30T03:13:20.465Z,0.49
2023-04-30T03:15:00.879Z,0.51
2023-04-30T03:16:41.474Z,0.52
2023-04-30T03:18:21.704Z,0.55
2023-04-30T03:20:02.124Z,0.59
2023-04-30T03:21:42.509Z,0.65
2023-04-30T03:23:22.953Z,0.62
2023-04-30T03:25:03.376Z,0.58
2023-04-30T03:26:43.788Z,0.56
2023-04-30T03:28:24.186Z,0.55
2023-04-30T03:30:04.514Z,0.55
2023-04-30T03:31:44.890Z,0.56
2023-04-30T03:33:25.261Z,0.58
2023-04-30T03:35:05.652Z,0.58
2023-04-30T03:36:46.050Z,0.58
2023-04-30T03:38:26.501Z,0.62
2023-04-30T03:40:06.877Z,0.62
2023-04-30T03:41:47.362Z,0.68
2023-04-30T03:43:27.763Z,0.65
2023-04-30T03:45:08.254Z,0.66
2023-04-30T03:46:48.651Z,0.69
2023-04-30T03:48:29.140Z,0.69
2023-04-30T03:50:09.475Z,0.66
2023-04-30T03:51:49.953Z,0.64
2023-04-30T03:53:30.406Z,0.65
2023-04-30T03:55:10.846Z,0.62
2023-04-30T03:56:51.302Z,0.65
2023-04-30T03:58:31.713Z,0.68
2023-04-30T04:00:12.160Z,0.72
2023-04-30T04:01:52.604Z,0.75
2023-04-30T04:03:32.978Z,0.75
2023-04-30T04:05:13.376Z,0.75
2023-04-30T04:06:53.782Z,0.79
2023-04-30T04:08:34.203Z,0.8
2023-04-30T04:10:14.586Z,0.83
2023-04-30T04:11:54.925Z,0.83
2023-04-30T04:13:35.405Z,0.82
2023-04-30T04:15:15.879Z,0.83
2023-04-30T04:16:56.231Z,0.87
2023-04-30T04:18:36.642Z,0.93
2023-04-30T04:20:17.100Z,0.99
2023-04-30T04:21:57.469Z,1.06
2023-04-30T04:23:37.913Z,1.12
2023-04-30T04:25:18.526Z,1.19
2023-04-30T04:26:58.678Z,1.24
2023-04-30T04:28:39.087Z,1.31
2023-04-30T04:30:19.580Z,1.37
2023-04-30T04:32:00.101Z,1.41
2023-04-30T04:33:40.482Z,1.47
2023-04-30T04:35:20.918Z,1.51
2023-04-30T04:37:01.337Z,1.57
2023-04-30T04:38:41.760Z,1.64
2023-04-30T04:40:22.234Z,1.75
2023-04-30T04:42:02.626Z,1.83
2023-04-30T04:43:43.017Z,1.92
2023-04-30T04:45:23.473Z,1.99
2023-04-30T04:47:03.908Z,2.08
2023-04-30T04:48:44.271Z,2.17
2023-04-30T04:50:24.701Z,2.23
2023-04-30T04:52:05.147Z,2.3
2023-04-30T04:53:45.495Z,2.36
2023-04-30T04:55:25.932Z,2.43
2023-04-30T04:57:06.342Z,2.51
2023-04-30T04:58:46.726Z,2.58
2023-04-30T05:00:27.116Z,2.64
2023-04-30T05:02:07.573Z,2.72
2023-04-30T05:03:47.926Z,2.81
2023-04-30T05:05:28.149Z,2.89
2023-04-30T05:07:08.403Z,2.99
2023-04-30T05:08:48.780Z,3.06
2023-04-30T05:10:29.133Z,3.13
2023-04-30T05:12:09.500Z,3.16
2023-04-30T05:13:49.844Z,3.23
2023-04-30T05:15:30.190Z,3.3
2023-04-30T05:17:10.600Z,3.36
2023-04-30T05:18:51.095Z,3.36
2023-04-30T05:20:31.505Z,3.4
2023-04-30T05:22:11.942Z,3.51
2023-04-30T05:23:52.347Z,3.54
2023-04-30T05:25:32.782Z,3.54
2023-04-30T05:27:13.170Z,3.6
2023-04-30T05:28:53.600Z,3.6
2023-04-30T05:30:34.044Z,3.71
2023-04-30T05:32:14.565Z,3.78
2023-04-30T05:33:54.967Z,3.81
2023-04-30T05:35:35.360Z,3.85
2023-04-30T05:37:15.768Z,3.94
2023-04-30T05:38:56.159Z,4.02
2023-04-30T05:40:36.559Z,4.09
2023-04-30T05:42:17.028Z,4.15
2023-04-30T05:43:57.517Z,4.2
2023-04-30T05:45:37.822Z,4.25
2023-04-30T05:47:18.297Z,4.3
2023-04-30T05:48:58.743Z,4.4
2023-04-30T05:50:39.304Z,4.54
2023-04-30T05:52:19.586Z,4.63
2023-04-30T05:54:00.122Z,4.68
2023-04-30T05:55:40.534Z,4.73
2023-04-30T05:57:20.903Z,4.83
2023-04-30T05:59:01.245Z,4.92
2023-04-30T06:00:41.646Z,4.94
2023-04-30T06:02:22.153Z,4.92
2023-04-30T06:04:02.465Z,4.96
2023-04-30T06:05:43.043Z,5.02
2023-04-30T06:07:23.305Z,5.08
2023-04-30T06:09:03.787Z,5.07
2023-04-30T06:10:44.206Z,5.12
2023-04-30T06:12:24.603Z,5.22
2023-04-30T06:14:04.998Z,5.31
2023-04-30T06:15:45.356Z,5.35
2023-04-30T06:17:25.817Z,5.33
2023-04-30T06:19:06.267Z,5.33
2023-04-30T06:20:46.705Z,5.41
2023-04-30T06:22:27.106Z,5.35
2023-04-30T06:24:07.569Z,5.39
2023-04-30T06:25:48.052Z,5.45
2023-04-30T06:27:28.526Z,5.5
2023-04-30T06:29:08.968Z,5.57
2023-04-30T06:30:49.316Z,5.67
2023-04-30T06:32:29.792Z,5.77
2023-04-30T06:34:10.140Z,5.86
2023-04-30T06:35:50.510Z,5.98
2023-04-30T06:37:32.406Z,6.26
2023-04-30T06:39:11.392Z,6.5
2023-04-30T06:40:51.831Z,6.83
2023-04-30T06:42:32.227Z,7.1
2023-04-30T06:44:12.733Z,7.42
2023-04-30T06:45:53.121Z,7.58
2023-04-30T06:47:33.504Z,7.72
2023-04-30T06:49:13.863Z,7.93
2023-04-30T06:50:54.225Z,8.2
2023-04-30T06:52:34.615Z,8.37
2023-04-30T06:54:14.977Z,8.47
2023-04-30T06:55:55.352Z,8.55
2023-04-30T06:57:35.754Z,8.72
2023-04-30T06:59:16.155Z,8.72
2023-04-30T07:00:56.584Z,8.76
2023-04-30T07:02:37.064Z,8.62
2023-04-30T07:04:17.385Z,8.49
2023-04-30T07:05:57.847Z,8.38
2023-04-30T07:07:38.218Z,8.33
2023-04-30T07:09:18.635Z,8.37
2023-04-30T07:10:58.992Z,8.31
2023-04-30T07:12:39.474Z,8.3
2023-04-30T07:14:19.880Z,8.25
2023-04-30T07:16:00.279Z,8.15
2023-04-30T07:17:40.657Z,8.08
2023-04-30T07:19:21.137Z,8.2
2023-04-30T07:21:01.595Z,8.48
2023-04-30T07:22:42.117Z,8.62
2023-04-30T07:24:22.619Z,8.82
2023-04-30T07:26:02.945Z,8.96
2023-04-30T07:27:43.307Z,9.09
2023-04-30T07:29:23.670Z,9.24
2023-04-30T07:31:04.117Z,9.38
2023-04-30T07:32:44.484Z,9.55
2023-04-30T07:34:24.803Z,9.75
2023-04-30T07:36:05.253Z,9.99
2023-04-30T07:37:45.633Z,10.2
2023-04-30T07:39:26.053Z,10.4
2023-04-30T07:41:06.456Z,10.63
2023-04-30T07:42:46.823Z,10.85
2023-04-30T07:44:27.270Z,10.99
2023-04-30T07:46:07.685Z,11.27
2023-04-30T07:47:48.090Z,11.46
2023-04-30T07:49:28.481Z,11.67
2023-04-30T07:51:08.931Z,11.78
2023-04-30T07:52:49.344Z,11.91
2023-04-30T07:54:29.796Z,12.08
2023-04-30T07:56:10.169Z,12.42
2023-04-30T07:57:50.610Z,12.57
2023-04-30T07:59:31.062Z,12.6
2023-04-30T08:01:11.527Z,12.36
2023-04-30T08:02:52.027Z,12.62
2023-04-30T08:04:32.482Z,12.82
2023-04-30T08:06:12.636Z,13.11
2023-04-30T08:07:53.021Z,13.42
2023-04-30T08:09:33.395Z,13.69
2023-04-30T08:11:13.805Z,13.7
2023-04-30T08:12:54.291Z,13.89
2023-04-30T08:14:34.621Z,14.11
2023-04-30T08:16:15.117Z,14.21
2023-04-30T08:17:55.533Z,14.28
2023-04-30T08:19:35.859Z,14.49
2023-04-30T08:21:16.343Z,14.64
2023-04-30T08:22:56.707Z,14.53
2023-04-30T08:24:37.169Z,14.8
2023-04-30T08:26:17.603Z,15
2023-04-30T08:27:58.016Z,15.06
2023-04-30T08:29:38.519Z,14.86
2023-04-30T08:31:18.948Z,14.83
2023-04-30T08:32:59.239Z,14.76
2023-04-30T08:34:39.574Z,15.05
2023-04-30T08:36:19.917Z,15.17
2023-04-30T08:38:00.392Z,15.26
2023-04-30T08:39:40.793Z,15.41
2023-04-30T08:41:21.235Z,15.56
2023-04-30T08:43:01.619Z,15.72
2023-04-30T08:44:41.986Z,15.71
2023-04-30T08:46:22.461Z,15.47
2023-04-30T08:48:02.915Z,15.51
2023-04-30T08:49:43.283Z,15.71
2023-04-30T08:51:23.707Z,15.95
2023-04-30T08:53:04.193Z,16.22
2023-04-30T08:54:44.593Z,15.77
2023-04-30T08:56:25.518Z,15.77
2023-04-30T08:58:05.448Z,16.17
2023-04-30T08:59:45.882Z,16.4
2023-04-30T09:01:26.375Z,16.49
2023-04-30T09:03:06.802Z,16.5
2023-04-30T09:04:47.065Z,16.64
2023-04-30T09:06:27.614Z,16.82
2023-04-30T09:08:07.919Z,17.11
2023-04-30T09:09:48.310Z,16.95
2023-04-30T09:11:28.781Z,16.92
2023-04-30T09:13:09.280Z,17.22
2023-04-30T09:14:49.567Z,17.28
2023-04-30T09:16:30.193Z,17.36
2023-04-30T09:18:10.500Z,17.46
2023-04-30T09:19:50.841Z,17.6
2023-04-30T09:21:31.210Z,17.65
2023-04-30T09:23:11.619Z,17.77
2023-04-30T09:24:52.062Z,17.86
2023-04-30T09:26:32.488Z,17.96
2023-04-30T09:28:12.900Z,17.87
2023-04-30T09:29:53.459Z,17.97
2023-04-30T09:31:33.911Z,18.17
2023-04-30T09:33:14.363Z,18.21
2023-04-30T09:34:54.627Z,18.45
2023-04-30T09:36:35.047Z,18.54
2023-04-30T09:38:15.379Z,18.83
2023-04-30T09:39:56.122Z,18.6
2023-04-30T09:41:36.194Z,18.46
2023-04-30T09:43:16.646Z,18.35
2023-04-30T09:44:57.066Z,18.41
2023-04-30T09:46:37.617Z,18.51
2023-04-30T09:48:18.191Z,18.58
2023-04-30T09:49:58.390Z,18.82
2023-04-30T09:51:38.710Z,19.06
2023-04-30T09:53:19.158Z,19.06
2023-04-30T09:54:59.504Z,19.13
2023-04-30T09:56:39.862Z,19.28
2023-04-30T09:58:20.246Z,19.32
2023-04-30T10:00:00.656Z,19.34
2023-04-30T10:01:41.418Z,19.42
2023-04-30T10:03:21.488Z,19.5
2023-04-30T10:05:01.866Z,19.86
2023-04-30T10:06:42.335Z,19.78
2023-04-30T10:08:22.734Z,19.89
2023-04-30T10:10:03.196Z,19.89
2023-04-30T10:11:43.601Z,19.64
2023-04-30T10:13:24.154Z,19.64
2023-04-30T10:15:04.505Z,19.69
2023-04-30T10:16:45.060Z,19.79
2023-04-30T10:18:25.365Z,19.95
2023-04-30T10:20:05.776Z,20.08
2023-04-30T10:21:46.254Z,20.44
2023-04-30T10:23:26.681Z,20.55
2023-04-30T10:25:07.056Z,20.27
2023-04-30T10:26:47.455Z,20.19
2023-04-30T10:28:27.884Z,20.19
2023-04-30T10:30:08.268Z,20.36
2023-04-30T10:31:48.732Z,20.46
2023-04-30T10:33:29.078Z,20.4
2023-04-30T10:35:09.472Z,20.52
2023-04-30T10:36:49.888Z,20.51
2023-04-30T10:38:30.291Z,20.72
2023-04-30T10:40:10.643Z,20.78
2023-04-30T10:41:51.066Z,20.74
2023-04-30T10:43:31.476Z,20.78
2023-04-30T10:45:11.874Z,20.84
2023-04-30T10:46:52.326Z,20.89
2023-04-30T10:48:32.683Z,20.99
2023-04-30T10:50:13.184Z,20.75
2023-04-30T10:51:53.578Z,20.58
2023-04-30T10:53:33.982Z,20.48
2023-04-30T10:55:14.418Z,20.59
2023-04-30T10:56:54.782Z,20.65
2023-04-30T10:58:35.169Z,20.68
2023-04-30T11:00:15.613Z,20.88
2023-04-30T11:01:56.095Z,21.03
2023-04-30T11:03:36.437Z,20.99
2023-04-30T11:05:17.082Z,21.05
2023-04-30T11:06:57.223Z,21.03
2023-04-30T11:08:37.615Z,21.05
2023-04-30T11:10:17.976Z,21.13
2023-04-30T11:11:58.356Z,21.23
2023-04-30T11:13:38.761Z,21.3
2023-04-30T11:15:19.108Z,21.21
2023-04-30T11:16:59.626Z,21.27
2023-04-30T11:18:40.018Z,21.32
2023-04-30T11:20:20.349Z,21.53
2023-04-30T11:22:00.744Z,21.53
2023-04-30T11:23:42.211Z,21.64
2023-04-30T11:25:21.641Z,21.52
2023-04-30T11:27:02.060Z,21.46
2023-04-30T11:28:42.462Z,21.53
2023-04-30T11:30:22.876Z,21.56
2023-04-30T11:32:03.356Z,21.47
2023-04-30T11:33:43.722Z,21.37
2023-04-30T11:35:24.077Z,21.23
2023-04-30T11:37:04.481Z,21.26
2023-04-30T11:38:44.911Z,21.23
2023-04-30T11:40:25.346Z,21.29
2023-04-30T11:42:05.711Z,21.47
2023-04-30T11:43:46.105Z,21.33
2023-04-30T11:45:26.464Z,20.94
2023-04-30T11:47:07.075Z,20.92
2023-04-30T11:48:47.399Z,21.09
2023-04-30T11:50:27.801Z,20.96
2023-04-30T11:52:08.179Z,21.07
2023-04-30T11:53:48.578Z,21.07
2023-04-30T11:55:29.029Z,21.06
2023-04-30T11:57:09.418Z,20.92
2023-04-30T11:58:49.920Z,20.98
2023-04-30T12:00:30.276Z,20.94
2023-04-30T12:02:13.508Z,20.79
2023-04-30T12:03:51.231Z,20.67
2023-04-30T12:05:31.530Z,20.75
2023-04-30T12:07:12.027Z,20.78
2023-04-30T12:08:52.479Z,20.74
2023-04-30T12:10:32.888Z,20.48
2023-04-30T12:12:13.316Z,20.54
2023-04-30T12:13:53.789Z,20.58
2023-04-30T12:15:34.254Z,20.52
2023-04-30T12:17:14.792Z,20.57
2023-04-30T12:18:55.106Z,20.64
2023-04-30T12:20:35.585Z,20.68
2023-04-30T12:22:15.935Z,20.72
2023-04-30T12:23:56.280Z,20.48
2023-04-30T12:25:36.783Z,20.38
2023-04-30T12:27:17.184Z,20.48
2023-04-30T12:28:57.622Z,20.43
2023-04-30T12:30:38.066Z,20.54
2023-04-30T12:32:18.575Z,20.36
2023-04-30T12:33:58.865Z,20.67
2023-04-30T12:35:39.237Z,20.85
2023-04-30T12:37:19.576Z,20.99
2023-04-30T12:39:00.051Z,20.95
2023-04-30T12:40:40.448Z,20.96
2023-04-30T12:42:20.858Z,20.96
2023-04-30T12:44:01.300Z,20.99
2023-04-30T12:45:41.843Z,20.84
2023-04-30T12:47:22.183Z,20.77
2023-04-30T12:49:02.542Z,20.95
2023-04-30T12:50:42.950Z,21.01
2023-04-30T12:52:23.416Z,20.91
2023-04-30T12:54:03.803Z,21.06
2023-04-30T12:55:47.291Z,20.96
2023-04-30T12:57:24.684Z,21.01
2023-04-30T12:59:05.129Z,21.27
2023-04-30T13:00:45.570Z,21.37
2023-04-30T13:02:26.092Z,21.49
2023-04-30T13:04:06.526Z,21.29
2023-04-30T13:05:46.829Z,21.12
2023-04-30T13:07:27.257Z,21.1
2023-04-30T13:09:07.691Z,21.25
2023-04-30T13:10:48.145Z,21.32
2023-04-30T13:12:28.550Z,21.34
2023-04-30T13:14:08.908Z,21.44
2023-04-30T13:15:49.315Z,21.65
2023-04-30T13:17:29.762Z,21.64
2023-04-30T13:19:10.179Z,21.64
2023-04-30T13:20:50.573Z,21.6
2023-04-30T13:22:30.987Z,21.5
2023-04-30T13:24:11.401Z,21.7
2023-04-30T13:25:51.745Z,21.78
2023-04-30T13:27:32.252Z,21.67
2023-04-30T13:29:12.732Z,21.67
2023-04-30T13:30:53.193Z,21.37
2023-04-30T13:32:33.551Z,21.19
2023-04-30T13:34:13.862Z,21.39
2023-04-30T13:35:54.225Z,21.52
2023-04-30T13:37:34.625Z,21.53
2023-04-30T13:39:15.007Z,21.43
2023-04-30T13:40:55.425Z,21.42
2023-04-30T13:42:35.842Z,21.6
2023-04-30T13:44:16.277Z,21.6
2023-04-30T13:45:56.701Z,21.47
2023-04-30T13:47:37.113Z,21.34
2023-04-30T13:49:17.457Z,21.19
2023-04-30T13:50:57.829Z,21.09
2023-04-30T13:52:38.295Z,21.07
2023-04-30T13:54:18.729Z,21.16
2023-04-30T13:55:59.123Z,21.34
2023-04-30T13:57:39.588Z,21.63
2023-04-30T13:59:20.031Z,21.64
2023-04-30T14:01:00.553Z,21.39
2023-04-30T14:02:41.055Z,21.5
2023-04-30T14:04:21.393Z,21.68
2023-04-30T14:06:01.740Z,21.68
2023-04-30T14:07:42.090Z,21.58
2023-04-30T14:09:22.526Z,21.63
2023-04-30T14:11:02.933Z,21.64
2023-04-30T14:12:43.363Z,21.78
2023-04-30T14:14:23.725Z,21.74
2023-04-30T14:16:04.165Z,21.73
2023-04-30T14:17:44.531Z,21.65
2023-04-30T14:19:24.933Z,21.3
2023-04-30T14:21:05.272Z,21.23
2023-04-30T14:22:45.712Z,21.16
2023-04-30T14:24:26.133Z,21.25
2023-04-30T14:26:06.478Z,21.33
2023-04-30T14:27:46.913Z,21.39
2023-04-30T14:29:27.320Z,21.36
2023-04-30T14:31:07.769Z,21.3
2023-04-30T14:32:48.255Z,21.27
2023-04-30T14:34:28.575Z,21.36
2023-04-30T14:36:09.002Z,21.43
2023-04-30T14:37:49.446Z,21.4
2023-04-30T14:39:29.885Z,21.33
2023-04-30T14:41:10.270Z,21.26
2023-04-30T14:42:50.795Z,21.36
2023-04-30T14:44:31.031Z,21.44
2023-04-30T14:46:11.547Z,21.43
2023-04-30T14:47:51.943Z,21.5
2023-04-30T14:49:32.281Z,21.6
2023-04-30T14:51:12.662Z,21.58
2023-04-30T14:52:53.094Z,21.42
2023-04-30T14:54:33.546Z,21.49
2023-04-30T14:56:14.002Z,21.32
2023-04-30T14:57:54.385Z,21.34
2023-04-30T14:59:34.828Z,21.26
2023-04-30T15:01:15.283Z,21.29
2023-04-30T15:02:55.726Z,21.42
2023-04-30T15:04:36.009Z,21.54
2023-04-30T15:06:16.442Z,21.46
2023-04-30T15:07:56.893Z,21.49
2023-04-30T15:09:37.313Z,21.49
2023-04-30T15:11:17.709Z,21.47
2023-04-30T15:12:58.175Z,21.44
2023-04-30T15:14:38.582Z,21.37
2023-04-30T15:16:19.129Z,21.09
2023-04-30T15:17:59.468Z,21.03
2023-04-30T15:19:39.895Z,21.12
2023-04-30T15:21:20.294Z,21.25
2023-04-30T15:23:00.740Z,21.19
2023-04-30T15:24:41.138Z,21.22
2023-04-30T15:26:21.452Z,21.42
2023-04-30T15:28:01.924Z,21.37
2023-04-30T15:29:42.365Z,21.36
2023-04-30T15:31:22.799Z,21.1
2023-04-30T15:33:03.319Z,21.12
2023-04-30T15:34:43.698Z,21.26
2023-04-30T15:36:24.161Z,21.54
2023-04-30T15:38:04.596Z,21.67
2023-04-30T15:39:45.050Z,21.5
2023-04-30T15:41:25.397Z,21.5
2023-04-30T15:43:05.785Z,21.53
2023-04-30T15:44:46.196Z,21.56
2023-04-30T15:46:26.574Z,21.53
2023-04-30T15:48:07.018Z,21.57
2023-04-30T15:49:47.377Z,21.63
2023-04-30T15:51:27.738Z,21.65
2023-04-30T15:53:08.171Z,21.46
2023-04-30T15:54:48.582Z,21.54
2023-04-30T15:56:28.946Z,21.78
2023-04-30T15:58:09.331Z,21.97
2023-04-30T15:59:49.761Z,21.94
2023-04-30T16:01:30.224Z,22.04
2023-04-30T16:03:10.816Z,22.32
2023-04-30T16:04:51.094Z,22.53
2023-04-30T16:06:31.553Z,22.6
2023-04-30T16:08:11.849Z,22.52
2023-04-30T16:09:52.238Z,22.5
2023-04-30T16:11:32.669Z,22.62
2023-04-30T16:13:13.085Z,22.55
2023-04-30T16:14:53.558Z,22.62
2023-04-30T16:16:34.091Z,22.52
2023-04-30T16:18:14.457Z,22.43
2023-04-30T16:19:55.209Z,22.58
2023-04-30T16:21:37.130Z,22.62
2023-04-30T16:23:15.597Z,22.55
2023-04-30T16:24:55.978Z,22.59
2023-04-30T16:26:36.334Z,22.48
2023-04-30T16:28:16.751Z,22.49
2023-04-30T16:29:57.454Z,22.79
2023-04-30T16:31:37.723Z,22.8
2023-04-30T16:33:18.037Z,22.91
2023-04-30T16:34:58.418Z,22.94
2023-04-30T16:36:38.832Z,22.9
2023-04-30T16:38:19.344Z,22.66
2023-04-30T16:39:59.762Z,22.4
2023-04-30T16:41:40.212Z,22.29
2023-04-30T16:43:20.665Z,22.22
2023-04-30T16:45:00.990Z,22.25
2023-04-30T16:46:41.368Z,22.18
2023-04-30T16:48:21.832Z,22.13
2023-04-30T16:50:02.257Z,22.16
2023-04-30T16:51:45.780Z,22.09
2023-04-30T16:53:23.156Z,22.07
2023-04-30T16:55:03.472Z,21.95
2023-04-30T16:56:43.916Z,22.04
2023-04-30T16:58:24.367Z,21.91
2023-04-30T17:00:04.807Z,21.91
2023-04-30T17:01:45.179Z,21.77
2023-04-30T17:03:25.824Z,21.77
2023-04-30T17:05:06.103Z,21.73
2023-04-30T17:06:46.694Z,21.67
2023-04-30T17:08:26.923Z,21.42
2023-04-30T17:10:07.361Z,21.37
2023-04-30T17:11:47.710Z,21.42
2023-04-30T17:13:31.068Z,21.42
2023-04-30T17:15:08.425Z,21.33
2023-04-30T17:16:48.785Z,21.09
2023-04-30T17:18:29.238Z,20.98
2023-04-30T17:20:09.605Z,20.94
2023-04-30T17:21:50.065Z,20.91
2023-04-30T17:23:30.462Z,20.91
2023-04-30T17:25:10.857Z,20.95
2023-04-30T17:26:51.269Z,20.91
2023-04-30T17:28:31.618Z,20.86
2023-04-30T17:30:12.026Z,20.75
2023-04-30T17:31:52.563Z,20.63
2023-04-30T17:33:32.862Z,20.67
2023-04-30T17:35:13.285Z,20.47
2023-04-30T17:36:53.691Z,20.27
2023-04-30T17:38:34.142Z,20.06
2023-04-30T17:40:14.541Z,19.88
2023-04-30T17:41:54.946Z,19.78
2023-04-30T17:43:35.354Z,19.65
2023-04-30T17:45:18.863Z,19.51
2023-04-30T17:46:56.298Z,19.41
2023-04-30T17:48:36.644Z,19.27
2023-04-30T17:50:17.059Z,19.04
2023-04-30T17:51:57.454Z,18.92
2023-04-30T17:53:37.857Z,18.7
2023-04-30T17:55:18.249Z,18.46
2023-04-30T17:56:58.689Z,18.21
2023-04-30T17:58:40.079Z,17.91
2023-04-30T18:00:19.462Z,17.6
2023-04-30T18:01:59.851Z,17.39
2023-04-30T18:03:40.233Z,17.12
2023-04-30T18:05:23.624Z,16.95
2023-04-30T18:07:00.891Z,16.75
2023-04-30T18:08:41.222Z,16.54
2023-04-30T18:10:21.680Z,16.29
2023-04-30T18:12:02.077Z,16.15
2023-04-30T18:13:42.495Z,16.01
2023-04-30T18:15:22.935Z,15.77
2023-04-30T18:17:03.381Z,15.58
2023-04-30T18:18:43.798Z,15.4
2023-04-30T18:20:24.262Z,15.14
2023-04-30T18:22:04.638Z,14.88
2023-04-30T18:23:45.028Z,14.67
2023-04-30T18:25:25.497Z,14.42
2023-04-30T18:27:05.943Z,14.24
2023-04-30T18:28:46.404Z,13.99
2023-04-30T18:30:26.853Z,13.77
2023-04-30T18:32:07.287Z,13.65
2023-04-30T18:33:47.768Z,13.48
2023-04-30T18:35:28.188Z,13.22
2023-04-30T18:37:08.609Z,12.94
2023-04-30T18:38:48.988Z,12.63
2023-04-30T18:40:29.484Z,12.38
2023-04-30T18:42:09.854Z,12.22
2023-04-30T18:43:50.289Z,12.04
2023-04-30T18:45:30.796Z,11.92
2023-04-30T18:47:11.117Z,11.76
2023-04-30T18:48:51.511Z,11.6
2023-04-30T18:50:31.989Z,11.46
2023-04-30T18:52:12.412Z,11.26
2023-04-30T18:53:52.842Z,11.06
2023-04-30T18:55:33.250Z,10.88
2023-04-30T18:57:13.679Z,10.68
2023-04-30T18:58:54.148Z,10.6
2023-04-30T19:00:34.669Z,10.39
2023-04-30T19:02:15.103Z,10.16
2023-04-30T19:03:55.481Z,10
2023-04-30T19:05:35.781Z,9.86
2023-04-30T19:07:16.115Z,9.74
2023-04-30T19:08:56.520Z,9.68
2023-04-30T19:10:36.921Z,9.57
2023-04-30T19:12:17.248Z,9.41
2023-04-30T19:13:57.750Z,9.24
2023-04-30T19:15:38.197Z,9.13
2023-04-30T19:17:20.223Z,9
2023-04-30T19:18:59.026Z,8.92
2023-04-30T19:20:39.471Z,8.83
2023-04-30T19:22:19.904Z,8.72
2023-04-30T19:24:00.289Z,8.58
2023-04-30T19:25:40.730Z,8.51
2023-04-30T19:27:21.161Z,8.47
2023-04-30T19:29:01.609Z,8.44
2023-04-30T19:30:42.182Z,8.35
2023-04-30T19:32:22.779Z,8.3
2023-04-30T19:35:43.409Z,8.04
2023-04-30T19:37:23.805Z,7.92
2023-04-30T19:39:04.211Z,7.92
2023-04-30T19:40:44.747Z,7.92
2023-04-30T19:42:25.147Z,7.85
2023-04-30T19:44:05.487Z,7.73
2023-04-30T19:45:45.954Z,7.62
2023-04-30T19:47:26.351Z,7.56
2023-04-30T19:49:06.745Z,7.45
2023-04-30T19:50:47.126Z,7.39
2023-04-30T19:52:27.471Z,7.38
2023-04-30T19:54:07.855Z,7.34
2023-04-30T19:55:51.307Z,7.28
2023-04-30T19:57:28.683Z,7.21
2023-04-30T19:59:09.098Z,7.07
2023-04-30T20:00:49.617Z,7.01
2023-04-30T20:02:30.019Z,6.91
2023-04-30T20:04:10.492Z,6.84
2023-04-30T20:05:50.782Z,6.82
2023-04-30T20:07:31.205Z,6.79
2023-04-30T20:09:11.584Z,6.73
2023-04-30T20:10:51.830Z,6.66
2023-04-30T20:12:32.121Z,6.55
2023-04-30T20:14:12.665Z,6.45
2023-04-30T20:15:52.867Z,6.43
2023-04-30T20:17:33.287Z,6.4
2023-04-30T20:19:13.535Z,6.33
2023-04-30T20:20:53.935Z,6.26
2023-04-30T20:22:34.317Z,6.24
2023-04-30T20:24:14.722Z,6.11
2023-04-30T20:25:55.172Z,6.04
2023-04-30T20:27:35.540Z,6.01
2023-04-30T20:29:15.929Z,5.93
2023-04-30T20:30:56.434Z,5.81
2023-04-30T20:32:36.816Z,5.83
2023-04-30T20:34:17.230Z,5.71
2023-04-30T20:35:57.600Z,5.7
2023-04-30T20:37:37.993Z,5.69
2023-04-30T20:39:18.343Z,5.6
2023-04-30T20:40:58.757Z,5.53
2023-04-30T20:42:39.231Z,5.47
2023-04-30T20:44:19.577Z,5.42
2023-04-30T20:45:59.998Z,5.41
2023-04-30T20:47:40.442Z,5.36
2023-04-30T20:49:20.839Z,5.36
2023-04-30T20:51:01.190Z,5.32
2023-04-30T20:52:41.600Z,5.26
2023-04-30T20:54:22.086Z,5.21
2023-04-30T20:56:02.449Z,5.12
2023-04-30T20:57:42.882Z,5.01
2023-04-30T20:59:23.304Z,5.05
2023-04-30T21:01:03.792Z,5.04
2023-04-30T21:02:44.246Z,4.94
2023-04-30T21:04:24.618Z,4.88
2023-04-30T21:06:04.968Z,4.84
2023-04-30T21:07:45.387Z,4.78
2023-04-30T21:09:25.802Z,4.74
2023-04-30T21:11:06.271Z,4.67
2023-04-30T21:12:46.732Z,4.71
2023-04-30T21:14:27.169Z,4.7
2023-04-30T21:16:07.741Z,4.68
2023-04-30T21:17:48.126Z,4.6
2023-04-30T21:19:28.530Z,4.5
2023-04-30T21:21:08.813Z,4.5
2023-04-30T21:22:49.253Z,4.43
2023-04-30T21:24:29.609Z,4.39
2023-04-30T21:26:09.944Z,4.33
2023-04-30T21:27:50.503Z,4.29
2023-04-30T21:29:30.951Z,4.25
2023-04-30T21:31:11.361Z,4.2
2023-04-30T21:32:51.761Z,4.17
2023-04-30T21:34:32.064Z,4.17
2023-04-30T21:36:12.372Z,4.26
2023-04-30T21:37:52.782Z,4.2
2023-04-30T21:39:33.190Z,4.16
2023-04-30T21:41:13.554Z,4.16
2023-04-30T21:42:53.990Z,4.1
2023-04-30T21:44:34.413Z,4.04
2023-04-30T21:46:14.919Z,3.96
2023-04-30T21:47:55.271Z,3.89
2023-04-30T21:49:35.611Z,3.94
2023-04-30T21:51:16.005Z,3.89
2023-04-30T21:52:56.442Z,3.85
2023-04-30T21:54:36.870Z,3.82
2023-04-30T21:56:18.192Z,3.77
2023-04-30T21:57:57.728Z,3.71
2023-04-30T21:59:38.152Z,3.71